sensor_id;sensor_type;location;lat;lon;timestamp;P1;durP1;ratioP1;P2;durP2;ratioP2
28180;SDS011;15464;50.988;10.318;2024-01-15T00:00:16;41.35;;;23.10;;
28180;SDS011;15464;50.988;10.318;2024-01-15T00:02:43;43.28;;;23.65;;
28180;SDS011;15464;50.988;10.318;2024-01-15T00:05:10;42.70;;;22.92;;
28180;SDS011;15464;50.988;10.318;2024-01-15T00:07:37;39.55;;;21.40;;
28180;SDS011;15464;50.988;10.318;2024-01-15T00:10:04;41.78;;;23.20;;
28180;SDS011;15464;50.988;10.318;2024-01-15T00:12:31;43.33;;;21.95;;
28180;SDS011;15464;50.988;10.318;2024-01-15T00:14:58;42.00;;;22.73;;
28180;SDS011;15464;50.988;10.318;2024-01-15T00:17:24;38.88;;;20.65;;
28180;SDS011;15464;50.988;10.318;2024-01-15T00:19:51;39.92;;;21.20;;
28180;SDS011;15464;50.988;10.318;2024-01-15T00:22:18;39.17;;;22.33;;
28180;SDS011;15464;50.988;10.318;2024-01-15T00:24:46;36.50;;;21.65;;
28180;SDS011;15464;50.988;10.318;2024-01-15T00:27:13;35.85;;;20.48;;
28180;SDS011;15464;50.988;10.318;2024-01-15T00:29:39;38.95;;;19.85;;
28180;SDS011;15464;50.988;10.318;2024-01-15T00:32:06;36.60;;;19.98;;
28180;SDS011;15464;50.988;10.318;2024-01-15T00:34:33;34.85;;;20.65;;
28180;SDS011;15464;50.988;10.318;2024-01-15T00:37:00;35.65;;;19.55;;
28180;SDS011;15464;50.988;10.318;2024-01-15T00:39:26;36.25;;;19.90;;
28180;SDS011;15464;50.988;10.318;2024-01-15T00:41:53;36.33;;;19.90;;
28180;SDS011;15464;50.988;10.318;2024-01-15T00:44:20;42.65;;;21.83;;
28180;SDS011;15464;50.988;10.318;2024-01-15T00:46:46;34.50;;;19.23;;
28180;SDS011;15464;50.988;10.318;2024-01-15T00:49:13;31.08;;;18.27;;
28180;SDS011;15464;50.988;10.318;2024-01-15T00:51:41;30.38;;;18.27;;
28180;SDS011;15464;50.988;10.318;2024-01-15T00:54:08;32.63;;;16.88;;
28180;SDS011;15464;50.988;10.318;2024-01-15T00:56:35;33.22;;;19.05;;
28180;SDS011;15464;50.988;10.318;2024-01-15T00:59:01;32.92;;;18.15;;
28180;SDS011;15464;50.988;10.318;2024-01-15T01:01:28;30.50;;;17.65;;
28180;SDS011;15464;50.988;10.318;2024-01-15T01:03:56;35.10;;;19.48;;
28180;SDS011;15464;50.988;10.318;2024-01-15T01:06:23;30.95;;;18.38;;
28180;SDS011;15464;50.988;10.318;2024-01-15T01:08:50;29.70;;;14.27;;
28180;SDS011;15464;50.988;10.318;2024-01-15T01:11:16;31.67;;;16.98;;
28180;SDS011;15464;50.988;10.318;2024-01-15T01:13:43;28.27;;;17.27;;
28180;SDS011;15464;50.988;10.318;2024-01-15T01:16:10;28.55;;;16.80;;
28180;SDS011;15464;50.988;10.318;2024-01-15T01:18:37;28.50;;;16.67;;
28180;SDS011;15464;50.988;10.318;2024-01-15T01:21:04;30.00;;;16.83;;
28180;SDS011;15464;50.988;10.318;2024-01-15T01:23:30;28.08;;;16.90;;
28180;SDS011;15464;50.988;10.318;2024-01-15T01:25:57;26.90;;;16.92;;
28180;SDS011;15464;50.988;10.318;2024-01-15T01:28:24;27.52;;;16.52;;
28180;SDS011;15464;50.988;10.318;2024-01-15T01:30:51;26.45;;;15.63;;
28180;SDS011;15464;50.988;10.318;2024-01-15T01:33:18;24.80;;;14.18;;
28180;SDS011;15464;50.988;10.318;2024-01-15T01:35:45;28.67;;;15.20;;
28180;SDS011;15464;50.988;10.318;2024-01-15T01:38:12;22.70;;;12.40;;
28180;SDS011;15464;50.988;10.318;2024-01-15T01:40:39;24.48;;;14.48;;
28180;SDS011;15464;50.988;10.318;2024-01-15T01:43:06;28.30;;;15.05;;
28180;SDS011;15464;50.988;10.318;2024-01-15T01:45:35;24.60;;;13.65;;
28180;SDS011;15464;50.988;10.318;2024-01-15T01:48:01;22.55;;;13.20;;
28180;SDS011;15464;50.988;10.318;2024-01-15T01:50:30;22.70;;;13.90;;
28180;SDS011;15464;50.988;10.318;2024-01-15T01:52:58;23.38;;;14.25;;
28180;SDS011;15464;50.988;10.318;2024-01-15T01:55:26;24.95;;;13.57;;
28180;SDS011;15464;50.988;10.318;2024-01-15T01:57:55;23.08;;;13.57;;
28180;SDS011;15464;50.988;10.318;2024-01-15T02:00:23;22.70;;;13.82;;
28180;SDS011;15464;50.988;10.318;2024-01-15T02:02:50;21.35;;;12.75;;
28180;SDS011;15464;50.988;10.318;2024-01-15T02:05:20;23.35;;;13.70;;
28180;SDS011;15464;50.988;10.318;2024-01-15T02:07:48;23.27;;;13.07;;
28180;SDS011;15464;50.988;10.318;2024-01-15T02:10:15;21.83;;;13.43;;
28180;SDS011;15464;50.988;10.318;2024-01-15T02:12:42;19.40;;;12.30;;
28180;SDS011;15464;50.988;10.318;2024-01-15T02:15:09;21.70;;;13.27;;
28180;SDS011;15464;50.988;10.318;2024-01-15T02:17:56;20.52;;;13.43;;
28180;SDS011;15464;50.988;10.318;2024-01-15T02:20:31;21.58;;;12.98;;
28180;SDS011;15464;50.988;10.318;2024-01-15T02:23:14;23.23;;;13.10;;
28180;SDS011;15464;50.988;10.318;2024-01-15T02:25:45;20.25;;;11.30;;
28180;SDS011;15464;50.988;10.318;2024-01-15T02:28:14;22.52;;;12.50;;
28180;SDS011;15464;50.988;10.318;2024-01-15T02:30:41;23.55;;;14.07;;
28180;SDS011;15464;50.988;10.318;2024-01-15T02:33:10;22.85;;;13.07;;
28180;SDS011;15464;50.988;10.318;2024-01-15T02:35:38;21.08;;;13.50;;
28180;SDS011;15464;50.988;10.318;2024-01-15T02:38:05;19.65;;;12.57;;
28180;SDS011;15464;50.988;10.318;2024-01-15T02:40:33;24.30;;;13.10;;
28180;SDS011;15464;50.988;10.318;2024-01-15T02:43:00;22.30;;;12.55;;
28180;SDS011;15464;50.988;10.318;2024-01-15T02:45:27;24.75;;;12.88;;
28180;SDS011;15464;50.988;10.318;2024-01-15T02:47:54;24.85;;;14.57;;
28180;SDS011;15464;50.988;10.318;2024-01-15T02:50:21;21.45;;;12.48;;
28180;SDS011;15464;50.988;10.318;2024-01-15T02:52:48;21.15;;;13.00;;
28180;SDS011;15464;50.988;10.318;2024-01-15T02:55:15;20.38;;;10.38;;
28180;SDS011;15464;50.988;10.318;2024-01-15T02:57:41;24.08;;;12.80;;
28180;SDS011;15464;50.988;10.318;2024-01-15T03:00:09;19.95;;;11.23;;
28180;SDS011;15464;50.988;10.318;2024-01-15T03:02:36;20.52;;;13.10;;
28180;SDS011;15464;50.988;10.318;2024-01-15T03:05:11;20.67;;;12.02;;
28180;SDS011;15464;50.988;10.318;2024-01-15T03:07:38;19.60;;;11.63;;
28180;SDS011;15464;50.988;10.318;2024-01-15T03:10:05;19.45;;;12.10;;
28180;SDS011;15464;50.988;10.318;2024-01-15T03:12:33;18.10;;;11.40;;
28180;SDS011;15464;50.988;10.318;2024-01-15T03:15:00;20.88;;;12.32;;
28180;SDS011;15464;50.988;10.318;2024-01-15T03:17:26;19.42;;;11.68;;
28180;SDS011;15464;50.988;10.318;2024-01-15T03:19:53;18.52;;;11.27;;
28180;SDS011;15464;50.988;10.318;2024-01-15T03:22:20;18.17;;;11.35;;
28180;SDS011;15464;50.988;10.318;2024-01-15T03:24:47;16.98;;;11.63;;
28180;SDS011;15464;50.988;10.318;2024-01-15T03:27:14;18.58;;;11.35;;
28180;SDS011;15464;50.988;10.318;2024-01-15T03:29:41;17.30;;;11.20;;
28180;SDS011;15464;50.988;10.318;2024-01-15T03:32:07;17.02;;;10.90;;
28180;SDS011;15464;50.988;10.318;2024-01-15T03:34:34;17.27;;;10.88;;
28180;SDS011;15464;50.988;10.318;2024-01-15T03:37:01;16.73;;;11.18;;
28180;SDS011;15464;50.988;10.318;2024-01-15T03:39:28;13.05;;;8.45;;
28180;SDS011;15464;50.988;10.318;2024-01-15T03:41:55;18.25;;;11.15;;
28180;SDS011;15464;50.988;10.318;2024-01-15T03:44:21;19.27;;;10.85;;
28180;SDS011;15464;50.988;10.318;2024-01-15T03:46:48;18.35;;;11.57;;
28180;SDS011;15464;50.988;10.318;2024-01-15T03:49:15;17.33;;;10.60;;
28180;SDS011;15464;50.988;10.318;2024-01-15T03:51:42;16.98;;;10.60;;
28180;SDS011;15464;50.988;10.318;2024-01-15T03:54:09;17.67;;;10.55;;
28180;SDS011;15464;50.988;10.318;2024-01-15T03:56:35;17.25;;;11.13;;
28180;SDS011;15464;50.988;10.318;2024-01-15T03:59:02;18.95;;;11.48;;
28180;SDS011;15464;50.988;10.318;2024-01-15T04:01:29;18.83;;;11.02;;
28180;SDS011;15464;50.988;10.318;2024-01-15T04:03:56;17.38;;;10.82;;
28180;SDS011;15464;50.988;10.318;2024-01-15T04:06:22;15.10;;;10.07;;
28180;SDS011;15464;50.988;10.318;2024-01-15T04:08:49;16.88;;;10.80;;
28180;SDS011;15464;50.988;10.318;2024-01-15T04:11:16;17.77;;;10.98;;
28180;SDS011;15464;50.988;10.318;2024-01-15T04:13:43;17.15;;;11.25;;
28180;SDS011;15464;50.988;10.318;2024-01-15T04:16:09;16.48;;;11.25;;
28180;SDS011;15464;50.988;10.318;2024-01-15T04:18:36;19.80;;;10.70;;
28180;SDS011;15464;50.988;10.318;2024-01-15T04:21:06;15.23;;;10.05;;
28180;SDS011;15464;50.988;10.318;2024-01-15T04:23:33;16.33;;;10.93;;
28180;SDS011;15464;50.988;10.318;2024-01-15T04:25:59;15.50;;;9.95;;
28180;SDS011;15464;50.988;10.318;2024-01-15T04:28:26;18.13;;;10.38;;
28180;SDS011;15464;50.988;10.318;2024-01-15T04:30:53;17.15;;;9.82;;
28180;SDS011;15464;50.988;10.318;2024-01-15T04:33:20;18.90;;;11.55;;
28180;SDS011;15464;50.988;10.318;2024-01-15T04:35:47;19.77;;;11.95;;
28180;SDS011;15464;50.988;10.318;2024-01-15T04:38:13;19.27;;;11.25;;
28180;SDS011;15464;50.988;10.318;2024-01-15T04:40:40;15.90;;;10.55;;
28180;SDS011;15464;50.988;10.318;2024-01-15T04:43:07;17.95;;;11.27;;
28180;SDS011;15464;50.988;10.318;2024-01-15T04:45:34;17.85;;;10.93;;
28180;SDS011;15464;50.988;10.318;2024-01-15T04:48:01;18.92;;;11.38;;
28180;SDS011;15464;50.988;10.318;2024-01-15T04:50:28;19.35;;;12.18;;
28180;SDS011;15464;50.988;10.318;2024-01-15T04:52:55;15.82;;;10.20;;
28180;SDS011;15464;50.988;10.318;2024-01-15T04:55:21;17.25;;;10.55;;
28180;SDS011;15464;50.988;10.318;2024-01-15T04:57:48;16.05;;;10.18;;
28180;SDS011;15464;50.988;10.318;2024-01-15T05:00:15;18.30;;;11.57;;
28180;SDS011;15464;50.988;10.318;2024-01-15T05:02:42;19.00;;;11.85;;
28180;SDS011;15464;50.988;10.318;2024-01-15T05:05:09;17.85;;;10.63;;
28180;SDS011;15464;50.988;10.318;2024-01-15T05:07:36;18.60;;;12.18;;
28180;SDS011;15464;50.988;10.318;2024-01-15T05:10:02;19.13;;;11.98;;
28180;SDS011;15464;50.988;10.318;2024-01-15T05:12:30;18.10;;;12.13;;
28180;SDS011;15464;50.988;10.318;2024-01-15T05:14:57;20.85;;;12.48;;
28180;SDS011;15464;50.988;10.318;2024-01-15T05:17:24;17.60;;;11.60;;
28180;SDS011;15464;50.988;10.318;2024-01-15T05:19:50;18.90;;;11.35;;
28180;SDS011;15464;50.988;10.318;2024-01-15T05:22:17;20.48;;;11.48;;
28180;SDS011;15464;50.988;10.318;2024-01-15T05:24:44;18.48;;;12.00;;
28180;SDS011;15464;50.988;10.318;2024-01-15T05:27:11;21.83;;;12.07;;
28180;SDS011;15464;50.988;10.318;2024-01-15T05:29:37;17.65;;;10.95;;
28180;SDS011;15464;50.988;10.318;2024-01-15T05:32:04;18.63;;;11.55;;
28180;SDS011;15464;50.988;10.318;2024-01-15T05:34:31;19.08;;;11.75;;
28180;SDS011;15464;50.988;10.318;2024-01-15T05:36:58;19.25;;;12.23;;
28180;SDS011;15464;50.988;10.318;2024-01-15T05:39:25;20.40;;;11.90;;
28180;SDS011;15464;50.988;10.318;2024-01-15T05:41:51;18.70;;;12.25;;
28180;SDS011;15464;50.988;10.318;2024-01-15T05:44:18;19.75;;;11.93;;
28180;SDS011;15464;50.988;10.318;2024-01-15T05:46:45;23.42;;;12.73;;
28180;SDS011;15464;50.988;10.318;2024-01-15T05:49:12;18.17;;;11.77;;
28180;SDS011;15464;50.988;10.318;2024-01-15T05:51:39;20.15;;;12.45;;
28180;SDS011;15464;50.988;10.318;2024-01-15T05:54:05;20.35;;;12.68;;
28180;SDS011;15464;50.988;10.318;2024-01-15T05:56:32;20.80;;;12.93;;
28180;SDS011;15464;50.988;10.318;2024-01-15T05:58:59;19.90;;;11.68;;
28180;SDS011;15464;50.988;10.318;2024-01-15T06:01:25;20.58;;;12.48;;
28180;SDS011;15464;50.988;10.318;2024-01-15T06:03:52;16.45;;;10.70;;
28180;SDS011;15464;50.988;10.318;2024-01-15T06:06:19;18.88;;;11.90;;
28180;SDS011;15464;50.988;10.318;2024-01-15T06:08:46;19.15;;;11.52;;
28180;SDS011;15464;50.988;10.318;2024-01-15T06:11:13;18.65;;;11.88;;
28180;SDS011;15464;50.988;10.318;2024-01-15T06:13:40;19.63;;;11.23;;
28180;SDS011;15464;50.988;10.318;2024-01-15T06:16:15;18.00;;;11.40;;
28180;SDS011;15464;50.988;10.318;2024-01-15T06:18:43;16.95;;;11.15;;
28180;SDS011;15464;50.988;10.318;2024-01-15T06:21:10;21.77;;;12.65;;
28180;SDS011;15464;50.988;10.318;2024-01-15T06:23:39;20.13;;;11.88;;
28180;SDS011;15464;50.988;10.318;2024-01-15T06:26:06;19.80;;;11.82;;
28180;SDS011;15464;50.988;10.318;2024-01-15T06:28:32;18.30;;;11.25;;
28180;SDS011;15464;50.988;10.318;2024-01-15T06:30:59;19.85;;;13.00;;
28180;SDS011;15464;50.988;10.318;2024-01-15T06:33:26;21.27;;;12.05;;
28180;SDS011;15464;50.988;10.318;2024-01-15T06:35:53;19.77;;;11.32;;
28180;SDS011;15464;50.988;10.318;2024-01-15T06:38:20;17.92;;;10.35;;
28180;SDS011;15464;50.988;10.318;2024-01-15T06:40:46;20.23;;;11.52;;
28180;SDS011;15464;50.988;10.318;2024-01-15T06:43:19;17.98;;;11.57;;
28180;SDS011;15464;50.988;10.318;2024-01-15T06:45:45;19.00;;;11.63;;
28180;SDS011;15464;50.988;10.318;2024-01-15T06:48:12;16.88;;;10.18;;
28180;SDS011;15464;50.988;10.318;2024-01-15T06:50:40;19.15;;;11.20;;
28180;SDS011;15464;50.988;10.318;2024-01-15T06:53:07;17.02;;;10.52;;
28180;SDS011;15464;50.988;10.318;2024-01-15T06:55:34;16.55;;;10.95;;
28180;SDS011;15464;50.988;10.318;2024-01-15T06:58:00;18.40;;;11.68;;
28180;SDS011;15464;50.988;10.318;2024-01-15T07:00:27;16.58;;;10.60;;
28180;SDS011;15464;50.988;10.318;2024-01-15T07:02:54;16.80;;;10.30;;
28180;SDS011;15464;50.988;10.318;2024-01-15T07:05:21;15.50;;;10.32;;
28180;SDS011;15464;50.988;10.318;2024-01-15T07:07:47;15.75;;;10.48;;
28180;SDS011;15464;50.988;10.318;2024-01-15T07:10:14;19.48;;;11.45;;
28180;SDS011;15464;50.988;10.318;2024-01-15T07:12:44;16.55;;;10.60;;
28180;SDS011;15464;50.988;10.318;2024-01-15T07:15:11;18.65;;;10.30;;
28180;SDS011;15464;50.988;10.318;2024-01-15T07:17:37;15.98;;;10.40;;
28180;SDS011;15464;50.988;10.318;2024-01-15T07:20:06;20.57;;;11.50;;
28180;SDS011;15464;50.988;10.318;2024-01-15T07:22:36;18.58;;;11.18;;
28180;SDS011;15464;50.988;10.318;2024-01-15T07:25:04;15.65;;;9.63;;
28180;SDS011;15464;50.988;10.318;2024-01-15T07:27:33;16.27;;;11.23;;
28180;SDS011;15464;50.988;10.318;2024-01-15T07:30:00;16.73;;;10.82;;
28180;SDS011;15464;50.988;10.318;2024-01-15T07:32:28;18.13;;;11.48;;
28180;SDS011;15464;50.988;10.318;2024-01-15T07:34:55;16.77;;;10.02;;
28180;SDS011;15464;50.988;10.318;2024-01-15T07:37:22;20.88;;;11.13;;
28180;SDS011;15464;50.988;10.318;2024-01-15T07:39:49;18.75;;;11.18;;
28180;SDS011;15464;50.988;10.318;2024-01-15T07:42:16;18.08;;;10.57;;
28180;SDS011;15464;50.988;10.318;2024-01-15T07:44:43;16.15;;;10.50;;
28180;SDS011;15464;50.988;10.318;2024-01-15T07:47:11;18.85;;;10.57;;
28180;SDS011;15464;50.988;10.318;2024-01-15T07:49:38;16.45;;;10.90;;
28180;SDS011;15464;50.988;10.318;2024-01-15T07:52:05;18.23;;;11.00;;
28180;SDS011;15464;50.988;10.318;2024-01-15T07:54:32;18.10;;;10.25;;
28180;SDS011;15464;50.988;10.318;2024-01-15T07:56:59;18.33;;;10.70;;
28180;SDS011;15464;50.988;10.318;2024-01-15T07:59:27;21.73;;;11.77;;
28180;SDS011;15464;50.988;10.318;2024-01-15T08:01:54;19.80;;;11.30;;
28180;SDS011;15464;50.988;10.318;2024-01-15T08:04:21;18.42;;;10.63;;
28180;SDS011;15464;50.988;10.318;2024-01-15T08:06:51;16.02;;;10.70;;
28180;SDS011;15464;50.988;10.318;2024-01-15T08:09:17;17.70;;;10.38;;
28180;SDS011;15464;50.988;10.318;2024-01-15T08:11:44;16.40;;;9.63;;
28180;SDS011;15464;50.988;10.318;2024-01-15T08:14:11;17.98;;;11.05;;
28180;SDS011;15464;50.988;10.318;2024-01-15T08:16:38;20.17;;;11.32;;
28180;SDS011;15464;50.988;10.318;2024-01-15T08:19:05;15.02;;;10.02;;
28180;SDS011;15464;50.988;10.318;2024-01-15T08:21:32;15.18;;;10.10;;
28180;SDS011;15464;50.988;10.318;2024-01-15T08:24:00;16.15;;;10.60;;
28180;SDS011;15464;50.988;10.318;2024-01-15T08:26:28;18.55;;;10.73;;
28180;SDS011;15464;50.988;10.318;2024-01-15T08:28:56;18.13;;;11.00;;
28180;SDS011;15464;50.988;10.318;2024-01-15T08:31:23;21.85;;;11.57;;
28180;SDS011;15464;50.988;10.318;2024-01-15T08:33:51;18.55;;;10.57;;
28180;SDS011;15464;50.988;10.318;2024-01-15T08:36:18;18.33;;;10.25;;
28180;SDS011;15464;50.988;10.318;2024-01-15T08:38:45;16.48;;;10.35;;
28180;SDS011;15464;50.988;10.318;2024-01-15T08:41:11;17.65;;;10.52;;
28180;SDS011;15464;50.988;10.318;2024-01-15T08:43:39;19.90;;;11.23;;
28180;SDS011;15464;50.988;10.318;2024-01-15T08:46:06;23.13;;;11.63;;
28180;SDS011;15464;50.988;10.318;2024-01-15T08:48:34;19.60;;;11.02;;
28180;SDS011;15464;50.988;10.318;2024-01-15T08:51:01;18.05;;;11.05;;
28180;SDS011;15464;50.988;10.318;2024-01-15T08:53:27;17.67;;;10.70;;
28180;SDS011;15464;50.988;10.318;2024-01-15T08:55:54;16.60;;;10.70;;
28180;SDS011;15464;50.988;10.318;2024-01-15T08:58:22;19.50;;;11.10;;
28180;SDS011;15464;50.988;10.318;2024-01-15T09:00:49;16.63;;;10.48;;
28180;SDS011;15464;50.988;10.318;2024-01-15T09:03:17;17.45;;;10.65;;
28180;SDS011;15464;50.988;10.318;2024-01-15T09:05:44;15.10;;;9.98;;
28180;SDS011;15464;50.988;10.318;2024-01-15T09:08:11;18.05;;;10.40;;
28180;SDS011;15464;50.988;10.318;2024-01-15T09:10:38;17.92;;;10.77;;
28180;SDS011;15464;50.988;10.318;2024-01-15T09:13:04;16.60;;;11.50;;
28180;SDS011;15464;50.988;10.318;2024-01-15T09:15:31;18.55;;;11.57;;
28180;SDS011;15464;50.988;10.318;2024-01-15T09:17:58;16.10;;;9.95;;
28180;SDS011;15464;50.988;10.318;2024-01-15T09:20:26;20.63;;;11.50;;
28180;SDS011;15464;50.988;10.318;2024-01-15T09:22:53;21.42;;;11.60;;
28180;SDS011;15464;50.988;10.318;2024-01-15T09:25:20;19.50;;;10.35;;
28180;SDS011;15464;50.988;10.318;2024-01-15T09:27:47;18.17;;;11.32;;
28180;SDS011;15464;50.988;10.318;2024-01-15T09:30:14;29.17;;;12.38;;
28180;SDS011;15464;50.988;10.318;2024-01-15T09:32:42;24.88;;;11.75;;
28180;SDS011;15464;50.988;10.318;2024-01-15T09:35:09;15.52;;;10.73;;
28180;SDS011;15464;50.988;10.318;2024-01-15T09:37:36;16.88;;;9.93;;
28180;SDS011;15464;50.988;10.318;2024-01-15T09:40:13;17.45;;;10.38;;
28180;SDS011;15464;50.988;10.318;2024-01-15T09:42:43;15.57;;;10.60;;
28180;SDS011;15464;50.988;10.318;2024-01-15T09:45:12;18.63;;;10.27;;
28180;SDS011;15464;50.988;10.318;2024-01-15T09:47:39;18.52;;;10.88;;
28180;SDS011;15464;50.988;10.318;2024-01-15T09:50:11;18.20;;;10.10;;
28180;SDS011;15464;50.988;10.318;2024-01-15T09:52:42;19.83;;;10.20;;
28180;SDS011;15464;50.988;10.318;2024-01-15T09:55:09;15.27;;;9.50;;
28180;SDS011;15464;50.988;10.318;2024-01-15T09:57:38;18.47;;;10.17;;
28180;SDS011;15464;50.988;10.318;2024-01-15T10:00:06;17.58;;;9.18;;
28180;SDS011;15464;50.988;10.318;2024-01-15T10:02:37;16.42;;;9.88;;
28180;SDS011;15464;50.988;10.318;2024-01-15T10:05:04;15.93;;;9.60;;
28180;SDS011;15464;50.988;10.318;2024-01-15T10:07:32;17.55;;;9.25;;
28180;SDS011;15464;50.988;10.318;2024-01-15T10:10:02;15.48;;;9.85;;
28180;SDS011;15464;50.988;10.318;2024-01-15T10:12:33;13.73;;;9.40;;
28180;SDS011;15464;50.988;10.318;2024-01-15T10:15:01;18.52;;;10.80;;
28180;SDS011;15464;50.988;10.318;2024-01-15T10:17:28;15.88;;;9.70;;
28180;SDS011;15464;50.988;10.318;2024-01-15T10:19:54;19.00;;;9.73;;
28180;SDS011;15464;50.988;10.318;2024-01-15T10:22:21;16.67;;;9.70;;
28180;SDS011;15464;50.988;10.318;2024-01-15T10:24:49;18.00;;;10.75;;
28180;SDS011;15464;50.988;10.318;2024-01-15T10:27:16;17.38;;;10.00;;
28180;SDS011;15464;50.988;10.318;2024-01-15T10:29:43;20.73;;;10.27;;
28180;SDS011;15464;50.988;10.318;2024-01-15T10:32:10;15.55;;;9.80;;
28180;SDS011;15464;50.988;10.318;2024-01-15T10:34:38;18.70;;;11.15;;
28180;SDS011;15464;50.988;10.318;2024-01-15T10:37:10;15.98;;;9.77;;
28180;SDS011;15464;50.988;10.318;2024-01-15T10:39:37;20.02;;;10.43;;
28180;SDS011;15464;50.988;10.318;2024-01-15T10:42:05;18.83;;;9.90;;
28180;SDS011;15464;50.988;10.318;2024-01-15T10:44:33;18.20;;;11.43;;
28180;SDS011;15464;50.988;10.318;2024-01-15T10:47:01;19.33;;;11.18;;
28180;SDS011;15464;50.988;10.318;2024-01-15T10:49:28;17.83;;;10.88;;
28180;SDS011;15464;50.988;10.318;2024-01-15T10:52:00;18.30;;;10.95;;
28180;SDS011;15464;50.988;10.318;2024-01-15T10:54:29;17.40;;;11.23;;
28180;SDS011;15464;50.988;10.318;2024-01-15T10:56:56;19.60;;;11.90;;
28180;SDS011;15464;50.988;10.318;2024-01-15T10:59:23;16.38;;;10.02;;
28180;SDS011;15464;50.988;10.318;2024-01-15T11:01:51;17.88;;;11.57;;
28180;SDS011;15464;50.988;10.318;2024-01-15T11:04:22;20.38;;;10.90;;
28180;SDS011;15464;50.988;10.318;2024-01-15T11:06:52;17.77;;;11.02;;
28180;SDS011;15464;50.988;10.318;2024-01-15T11:09:23;17.70;;;10.00;;
28180;SDS011;15464;50.988;10.318;2024-01-15T11:11:52;17.88;;;10.75;;
28180;SDS011;15464;50.988;10.318;2024-01-15T11:14:39;17.90;;;10.70;;
28180;SDS011;15464;50.988;10.318;2024-01-15T11:17:10;17.75;;;10.98;;
28180;SDS011;15464;50.988;10.318;2024-01-15T11:19:48;17.48;;;10.98;;
28180;SDS011;15464;50.988;10.318;2024-01-15T11:25:01;18.40;;;10.25;;
28180;SDS011;15464;50.988;10.318;2024-01-15T11:30:13;19.60;;;11.25;;
28180;SDS011;15464;50.988;10.318;2024-01-15T11:32:41;18.70;;;11.07;;
28180;SDS011;15464;50.988;10.318;2024-01-15T11:35:09;19.63;;;10.45;;
28180;SDS011;15464;50.988;10.318;2024-01-15T11:43:00;16.90;;;11.23;;
28180;SDS011;15464;50.988;10.318;2024-01-15T11:45:27;18.52;;;11.55;;
28180;SDS011;15464;50.988;10.318;2024-01-15T11:50:41;20.98;;;11.70;;
28180;SDS011;15464;50.988;10.318;2024-01-15T11:53:14;16.45;;;10.48;;
28180;SDS011;15464;50.988;10.318;2024-01-15T11:55:51;19.48;;;10.60;;
28180;SDS011;15464;50.988;10.318;2024-01-15T11:58:18;17.02;;;10.60;;
28180;SDS011;15464;50.988;10.318;2024-01-15T12:00:48;16.33;;;10.77;;
28180;SDS011;15464;50.988;10.318;2024-01-15T12:03:23;19.35;;;10.98;;
28180;SDS011;15464;50.988;10.318;2024-01-15T12:05:53;18.98;;;11.80;;
28180;SDS011;15464;50.988;10.318;2024-01-15T12:08:23;18.15;;;11.63;;
28180;SDS011;15464;50.988;10.318;2024-01-15T12:10:50;17.45;;;10.43;;
28180;SDS011;15464;50.988;10.318;2024-01-15T12:13:17;17.85;;;10.63;;
28180;SDS011;15464;50.988;10.318;2024-01-15T12:15:45;18.40;;;12.02;;
28180;SDS011;15464;50.988;10.318;2024-01-15T12:18:15;16.63;;;11.70;;
28180;SDS011;15464;50.988;10.318;2024-01-15T12:20:46;18.20;;;11.20;;
28180;SDS011;15464;50.988;10.318;2024-01-15T12:23:14;21.08;;;12.07;;
28180;SDS011;15464;50.988;10.318;2024-01-15T12:25:41;16.95;;;11.10;;
28180;SDS011;15464;50.988;10.318;2024-01-15T12:28:08;16.85;;;10.48;;
28180;SDS011;15464;50.988;10.318;2024-01-15T12:30:35;17.10;;;11.02;;
28180;SDS011;15464;50.988;10.318;2024-01-15T12:33:04;18.60;;;11.50;;
28180;SDS011;15464;50.988;10.318;2024-01-15T12:35:33;20.92;;;12.20;;
28180;SDS011;15464;50.988;10.318;2024-01-15T12:38:00;21.03;;;11.90;;
28180;SDS011;15464;50.988;10.318;2024-01-15T12:40:31;17.20;;;10.07;;
28180;SDS011;15464;50.988;10.318;2024-01-15T12:43:02;19.60;;;10.70;;
28180;SDS011;15464;50.988;10.318;2024-01-15T12:45:29;17.60;;;11.15;;
28180;SDS011;15464;50.988;10.318;2024-01-15T12:47:58;20.15;;;11.35;;
28180;SDS011;15464;50.988;10.318;2024-01-15T12:50:24;17.80;;;11.13;;
28180;SDS011;15464;50.988;10.318;2024-01-15T12:52:54;18.52;;;10.38;;
28180;SDS011;15464;50.988;10.318;2024-01-15T12:55:21;16.38;;;10.07;;
28180;SDS011;15464;50.988;10.318;2024-01-15T12:57:49;16.52;;;9.23;;
28180;SDS011;15464;50.988;10.318;2024-01-15T13:00:19;14.27;;;9.15;;
28180;SDS011;15464;50.988;10.318;2024-01-15T13:02:46;13.57;;;9.02;;
28180;SDS011;15464;50.988;10.318;2024-01-15T13:05:12;15.60;;;9.70;;
28180;SDS011;15464;50.988;10.318;2024-01-15T13:07:41;14.50;;;9.20;;
28180;SDS011;15464;50.988;10.318;2024-01-15T13:10:09;15.65;;;8.82;;
28180;SDS011;15464;50.988;10.318;2024-01-15T13:12:37;13.02;;;8.95;;
28180;SDS011;15464;50.988;10.318;2024-01-15T13:15:05;15.30;;;9.07;;
28180;SDS011;15464;50.988;10.318;2024-01-15T13:17:34;14.18;;;8.93;;
28180;SDS011;15464;50.988;10.318;2024-01-15T13:20:01;14.90;;;9.07;;
28180;SDS011;15464;50.988;10.318;2024-01-15T13:22:29;12.88;;;9.05;;
28180;SDS011;15464;50.988;10.318;2024-01-15T13:24:59;13.52;;;8.40;;
28180;SDS011;15464;50.988;10.318;2024-01-15T13:27:26;14.02;;;8.20;;
28180;SDS011;15464;50.988;10.318;2024-01-15T13:29:54;17.10;;;8.63;;
28180;SDS011;15464;50.988;10.318;2024-01-15T13:32:24;14.23;;;9.15;;
28180;SDS011;15464;50.988;10.318;2024-01-15T13:34:59;12.98;;;9.25;;
28180;SDS011;15464;50.988;10.318;2024-01-15T13:37:26;14.13;;;8.80;;
28180;SDS011;15464;50.988;10.318;2024-01-15T13:39:54;14.55;;;9.48;;
28180;SDS011;15464;50.988;10.318;2024-01-15T13:42:21;16.35;;;8.88;;
28180;SDS011;15464;50.988;10.318;2024-01-15T13:44:54;14.77;;;8.90;;
28180;SDS011;15464;50.988;10.318;2024-01-15T13:47:21;16.65;;;9.10;;
28180;SDS011;15464;50.988;10.318;2024-01-15T13:49:47;12.15;;;8.57;;
28180;SDS011;15464;50.988;10.318;2024-01-15T13:52:14;12.95;;;8.50;;
28180;SDS011;15464;50.988;10.318;2024-01-15T13:54:41;12.25;;;8.32;;
28180;SDS011;15464;50.988;10.318;2024-01-15T13:57:18;15.25;;;9.35;;
28180;SDS011;15464;50.988;10.318;2024-01-15T13:59:46;15.40;;;9.45;;
28180;SDS011;15464;50.988;10.318;2024-01-15T14:02:13;14.95;;;9.60;;
28180;SDS011;15464;50.988;10.318;2024-01-15T14:04:46;15.73;;;9.77;;
28180;SDS011;15464;50.988;10.318;2024-01-15T14:07:13;14.20;;;8.85;;
28180;SDS011;15464;50.988;10.318;2024-01-15T14:09:41;16.02;;;9.73;;
28180;SDS011;15464;50.988;10.318;2024-01-15T14:12:08;15.30;;;9.20;;
28180;SDS011;15464;50.988;10.318;2024-01-15T14:14:35;13.95;;;8.27;;
28180;SDS011;15464;50.988;10.318;2024-01-15T14:17:02;14.15;;;8.88;;
28180;SDS011;15464;50.988;10.318;2024-01-15T14:19:29;13.50;;;7.90;;
28180;SDS011;15464;50.988;10.318;2024-01-15T14:21:55;10.93;;;7.45;;
28180;SDS011;15464;50.988;10.318;2024-01-15T14:24:22;10.48;;;7.32;;
28180;SDS011;15464;50.988;10.318;2024-01-15T14:26:49;10.27;;;6.93;;